APL New Jersey — A8NM6 — position and weather

sailwx.info

Track history (hours):
 
Tides and Currents Weather Stations Pressure Air Temp Water Temp Dewpoint Dewpoint Depression Visibility Wind Speed Wind Dir Waves Ship Positions

APL New Jersey

Last reported at 2015-Jan-28 07:11 UTC. Time now 2015-Jan-31 14:45 UTC.
Position N 36°51' W 127°28'.

Length 293 m; draft 13.1 m.

Type: Cargo ship. MMSI: 636013522.

Date/timePositionNaut miles runAvg speedWind from/ knotsBaromVisibWave heightAir tempDewpointWater temp
2015-Jan-28 07:11N 36°51' W 127°28'2119.8
2015-Jan-28 06:06N 36°36' W 127°10'1220.3
2015-Jan-28 05:30N 36°27' W 126°60'2020.0
2015-Jan-28 04:29N 36°15' W 126°39'2020.0
2015-Jan-28 03:28N 36°05' W 126°18'1920.3
2015-Jan-28 02:33N 35°56' W 125°57'2019.8
2015-Jan-28 01:33N 35°47' W 125°35'12219.8
2015-Jan-27 19:23N 34°49' W 123°24'25817.4
2015-Jan-27 04:31N 33°35' W 118°24'8 8.8
2015-Jan-27 03:33N 33°39' W 118°15'5 4.7
2015-Jan-27 02:32N 33°44' W 118°15'0 0.0
2015-Jan-27 01:09N 33°44' W 118°15'0 0.0
2015-Jan-27 00:27N 33°44' W 118°15'0 0.0
2015-Jan-26 23:27N 33°44' W 118°15'0 0.0
2015-Jan-26 22:33N 33°44' W 118°15'0 0.0
2015-Jan-26 19:18N 33°44' W 118°15'0 0.0
2015-Jan-26 18:33N 33°44' W 118°15'0 0.0
2015-Jan-26 17:27N 33°44' W 118°15'0 0.0
2015-Jan-26 02:21N 33°44' W 118°15'0 0.0
2015-Jan-26 00:33N 33°44' W 118°15'0 0.0
2015-Jan-25 23:27N 33°44' W 118°15'0 0.0
2015-Jan-25 22:30N 33°44' W 118°15'0 0.0
2015-Jan-25 20:30N 33°44' W 118°15'0 0.0
2015-Jan-25 19:18N 33°44' W 118°15'0 0.0
2015-Jan-25 18:30N 33°44' W 118°15'0 0.0
2015-Jan-25 16:06N 33°44' W 118°15'0 0.0
2015-Jan-25 15:30N 33°44' W 118°15'0 0.0
2015-Jan-25 14:30N 33°44' W 118°15'0 0.0
2015-Jan-25 13:30N 33°44' W 118°15'0 0.0
2015-Jan-25 12:30N 33°44' W 118°15'0 0.0
2015-Jan-25 11:30N 33°44' W 118°15'0 0.0
2015-Jan-25 10:24N 33°44' W 118°15'0 0.1
2015-Jan-25 09:24N 33°44' W 118°15'0 0.0
2015-Jan-25 07:30N 33°44' W 118°15'0 0.0
2015-Jan-25 05:18N 33°44' W 118°15'0 0.0
2015-Jan-25 04:30N 33°44' W 118°15'0 0.0
2015-Jan-25 03:30N 33°44' W 118°15'0 0.0
2015-Jan-25 02:30N 33°44' W 118°15'0 0.0
2015-Jan-25 01:12N 33°44' W 118°15'0 0.0
2015-Jan-25 00:24N 33°44' W 118°15'0 0.0
2015-Jan-24 16:24N 33°44' W 118°15'0 0.0
2015-Jan-24 10:21N 33°44' W 118°15'0 0.0
2015-Jan-24 09:33N 33°44' W 118°15'0 0.0
2015-Jan-24 08:33N 33°44' W 118°15'0 0.0
2015-Jan-24 07:33N 33°44' W 118°15'0 0.0
2015-Jan-24 06:33N 33°44' W 118°15'0 0.0
2015-Jan-24 05:33N 33°44' W 118°15'0 0.0
2015-Jan-24 04:33N 33°44' W 118°15'0 0.0
2015-Jan-24 03:33N 33°44' W 118°15'0 0.0
2015-Jan-24 02:33N 33°44' W 118°15'0 0.0
2015-Jan-24 01:33N 33°44' W 118°15'0 0.0
2015-Jan-24 00:33N 33°44' W 118°15'0 0.0
2015-Jan-23 23:33N 33°44' W 118°15'0 0.0
2015-Jan-23 22:33N 33°44' W 118°15'0 0.0
2015-Jan-23 19:27N 33°44' W 118°15'0 0.0
2015-Jan-23 17:21N 33°44' W 118°15'0 0.0
2015-Jan-23 16:33N 33°44' W 118°15'0 0.0
2015-Jan-23 15:33N 33°44' W 118°15'0 0.0
2015-Jan-23 14:33N 33°44' W 118°15'0 0.0
2015-Jan-23 13:30N 33°44' W 118°15'0 0.0
2015-Jan-23 12:33N 33°44' W 118°15'0 0.0
2015-Jan-23 11:33N 33°44' W 118°15'0 0.0
2015-Jan-23 10:33N 33°44' W 118°15'0 0.0
2015-Jan-23 09:33N 33°44' W 118°15'0 0.0
2015-Jan-23 08:33N 33°44' W 118°15'0 0.0
2015-Jan-23 07:33N 33°44' W 118°15'0 0.0
2015-Jan-23 06:33N 33°44' W 118°15'0 0.0
2015-Jan-23 05:27N 33°44' W 118°15'0 0.0
2015-Jan-23 04:33N 33°44' W 118°15'0 0.0
2015-Jan-23 03:33N 33°44' W 118°15'1 1.3
2015-Jan-23 02:33N 33°43' W 118°15'8 7.6
2015-Jan-23 01:33N 33°36' W 118°10'7 6.9
2015-Jan-23 00:33N 33°30' W 118°07'3 3.3
2015-Jan-22 23:33N 33°27' W 118°06'2 2.3
2015-Jan-22 22:33N 33°24' W 118°05'3 2.7
2015-Jan-22 21:33N 33°22' W 118°04'9 9.1
2015-Jan-22 20:33N 33°13' W 118°00'1111.1
2015-Jan-22 19:33N 33°03' W 117°56'1111.2
2015-Jan-22 18:33N 32°52' W 117°54'2 2.1
2015-Jan-22 17:32N 32°50' W 117°54'1 0.8
2015-Jan-22 16:32N 32°50' W 117°55'1 0.9
2015-Jan-22 15:32N 32°51' W 117°55'1 0.7
2015-Jan-22 14:32N 32°52' W 117°56'1 0.8
2015-Jan-22 13:32N 32°52' W 117°56'1 0.8
2015-Jan-22 12:32N 32°52' W 117°57'1 1.0
2015-Jan-22 11:32N 32°53' W 117°58'1 1.1
2015-Jan-22 10:32N 32°54' W 117°59'1 1.0
2015-Jan-22 09:32N 32°54' W 118°00'1 1.0
2015-Jan-22 08:32N 32°55' W 118°01'1 1.1
2015-Jan-22 07:32N 32°55' W 118°02'1 1.2
2015-Jan-22 06:32N 32°56' W 118°03'3 2.6
2015-Jan-22 05:34N 32°54' W 118°02'9 9.2
2015-Jan-22 04:34N 32°48' W 117°54'1 0.6
2015-Jan-22 03:33N 32°47' W 117°54'2 1.6
2015-Jan-22 02:33N 32°48' W 117°55'2 1.6
2015-Jan-22 01:33N 32°49' W 117°56'2 1.7
2015-Jan-22 00:33N 32°50' W 117°58'2 1.5
2015-Jan-21 23:33N 32°51' W 117°59'1 1.4
2015-Jan-21 22:48N 32°52' W 118°00'0 1.3
2015-Jan-21 22:45N 32°52' W 118°00'0 1.5
2015-Jan-21 22:33N 32°52' W 118°01'1 1.3
2015-Jan-21 21:33N 32°53' W 118°02'1 1.2
2015-Jan-21 20:33N 32°53' W 118°03'1 1.2
2015-Jan-21 19:30N 32°54' W 118°05'1 1.1
2015-Jan-21 18:30N 32°55' W 118°06'1 1.2
2015-Jan-21 17:33N 32°55' W 118°07'1 1.2
2015-Jan-21 16:30N 32°56' W 118°08'1 1.2
2015-Jan-21 15:33N 32°56' W 118°09'1 1.0
2015-Jan-21 14:33N 32°56' W 118°11'1 0.7
2015-Jan-21 13:33N 32°56' W 118°11'4 3.7
2015-Jan-21 12:33N 32°56' W 118°07'6 5.5
2015-Jan-21 11:33N 32°55' W 118°00'6 5.5
2015-Jan-21 10:33N 32°53' W 117°54'5 5.0
2015-Jan-21 09:33N 32°50' W 117°50'6 6.0
2015-Jan-21 08:33N 32°44' W 117°48'6 6.1
2015-Jan-21 07:33N 32°38' W 117°45'6 6.3
2015-Jan-21 06:33N 32°32' W 117°43'6 6.2
2015-Jan-21 05:33N 32°27' W 117°40'6 6.1
2015-Jan-21 04:33N 32°21' W 117°38'6 6.1
2015-Jan-21 03:33N 32°15' W 117°36'7 5.7
2015-Jan-21 02:18N 32°08' W 117°33'4 5.7
2015-Jan-21 01:32N 32°04' W 117°32'6 5.5
2015-Jan-21 00:31N 31°59' W 117°30'5 5.4
2015-Jan-20 23:33N 31°54' W 117°28'5 5.2
2015-Jan-20 22:33N 31°49' W 117°26'5 5.1
2015-Jan-20 21:33N 31°44' W 117°24'5 5.2
2015-Jan-20 20:33N 31°39' W 117°22'6 5.7
2015-Jan-20 19:26N 31°33' W 117°20'5 5.7
2015-Jan-20 18:33N 31°28' W 117°19'2 2.0
2015-Jan-20 17:33N 31°26' W 117°18'5 5.5
2015-Jan-20 16:33N 31°21' W 117°16'3311.0
2015-Jan-20 13:34N 30°50' W 117°04'8710.8
2015-Jan-20 05:29N 29°27' W 116°32'3310.5
2015-Jan-20 02:19N 28°56' W 116°21'1210.6
2015-Jan-20 01:14N 28°45' W 116°16'810.4
2015-Jan-20 00:30N 28°37' W 116°14'1010.4
2015-Jan-19 23:33N 28°28' W 116°10'1010.1
2015-Jan-19 22:34N 28°18' W 116°07'1010.2
2015-Jan-19 21:34N 28°09' W 116°03'1110.6
2015-Jan-19 20:34N 27°59' W 115°59'1210.8
2015-Jan-19 19:27N 27°49' W 115°51'  
Track history (hours):
 
Tides and Currents Weather Stations Pressure Air Temp Water Temp Dewpoint Dewpoint Depression Visibility Wind Speed Wind Dir Waves Ship Positions

APL New Jersey

Last reported at 2015-Jan-28 07:11 UTC. Time now 2015-Jan-31 14:45 UTC.
Position N 36°51' W 127°28'.

Length 293 m; draft 13.1 m.

Type: Cargo ship. MMSI: 636013522.

Date/timePositionNaut miles runAvg speedWind from/ knotsBaromVisibWave heightAir tempDewpointWater temp
2015-Jan-28 07:11N 36°51' W 127°28'2119.8
2015-Jan-28 06:06N 36°36' W 127°10'1220.3
2015-Jan-28 05:30N 36°27' W 126°60'2020.0
2015-Jan-28 04:29N 36°15' W 126°39'2020.0
2015-Jan-28 03:28N 36°05' W 126°18'1920.3
2015-Jan-28 02:33N 35°56' W 125°57'2019.8
2015-Jan-28 01:33N 35°47' W 125°35'12219.8
2015-Jan-27 19:23N 34°49' W 123°24'25817.4
2015-Jan-27 04:31N 33°35' W 118°24'8 8.8
2015-Jan-27 03:33N 33°39' W 118°15'5 4.7
2015-Jan-27 02:32N 33°44' W 118°15'0 0.0
2015-Jan-27 01:09N 33°44' W 118°15'0 0.0
2015-Jan-27 00:27N 33°44' W 118°15'0 0.0
2015-Jan-26 23:27N 33°44' W 118°15'0 0.0
2015-Jan-26 22:33N 33°44' W 118°15'0 0.0
2015-Jan-26 19:18N 33°44' W 118°15'0 0.0
2015-Jan-26 18:33N 33°44' W 118°15'0 0.0
2015-Jan-26 17:27N 33°44' W 118°15'0 0.0
2015-Jan-26 02:21N 33°44' W 118°15'0 0.0
2015-Jan-26 00:33N 33°44' W 118°15'0 0.0
2015-Jan-25 23:27N 33°44' W 118°15'0 0.0
2015-Jan-25 22:30N 33°44' W 118°15'0 0.0
2015-Jan-25 20:30N 33°44' W 118°15'0 0.0
2015-Jan-25 19:18N 33°44' W 118°15'0 0.0
2015-Jan-25 18:30N 33°44' W 118°15'0 0.0
2015-Jan-25 16:06N 33°44' W 118°15'0 0.0
2015-Jan-25 15:30N 33°44' W 118°15'0 0.0
2015-Jan-25 14:30N 33°44' W 118°15'0 0.0
2015-Jan-25 13:30N 33°44' W 118°15'0 0.0
2015-Jan-25 12:30N 33°44' W 118°15'0 0.0
2015-Jan-25 11:30N 33°44' W 118°15'0 0.0
2015-Jan-25 10:24N 33°44' W 118°15'0 0.1
2015-Jan-25 09:24N 33°44' W 118°15'0 0.0
2015-Jan-25 07:30N 33°44' W 118°15'0 0.0
2015-Jan-25 05:18N 33°44' W 118°15'0 0.0
2015-Jan-25 04:30N 33°44' W 118°15'0 0.0
2015-Jan-25 03:30N 33°44' W 118°15'0 0.0
2015-Jan-25 02:30N 33°44' W 118°15'0 0.0
2015-Jan-25 01:12N 33°44' W 118°15'0 0.0
2015-Jan-25 00:24N 33°44' W 118°15'0 0.0
2015-Jan-24 16:24N 33°44' W 118°15'0 0.0
2015-Jan-24 10:21N 33°44' W 118°15'0 0.0
2015-Jan-24 09:33N 33°44' W 118°15'0 0.0
2015-Jan-24 08:33N 33°44' W 118°15'0 0.0
2015-Jan-24 07:33N 33°44' W 118°15'0 0.0
2015-Jan-24 06:33N 33°44' W 118°15'0 0.0
2015-Jan-24 05:33N 33°44' W 118°15'0 0.0
2015-Jan-24 04:33N 33°44' W 118°15'0 0.0
2015-Jan-24 03:33N 33°44' W 118°15'0 0.0
2015-Jan-24 02:33N 33°44' W 118°15'0 0.0
2015-Jan-24 01:33N 33°44' W 118°15'0 0.0
2015-Jan-24 00:33N 33°44' W 118°15'0 0.0
2015-Jan-23 23:33N 33°44' W 118°15'0 0.0
2015-Jan-23 22:33N 33°44' W 118°15'0 0.0
2015-Jan-23 19:27N 33°44' W 118°15'0 0.0
2015-Jan-23 17:21N 33°44' W 118°15'0 0.0
2015-Jan-23 16:33N 33°44' W 118°15'0 0.0
2015-Jan-23 15:33N 33°44' W 118°15'0 0.0
2015-Jan-23 14:33N 33°44' W 118°15'0 0.0
2015-Jan-23 13:30N 33°44' W 118°15'0 0.0
2015-Jan-23 12:33N 33°44' W 118°15'0 0.0
2015-Jan-23 11:33N 33°44' W 118°15'0 0.0
2015-Jan-23 10:33N 33°44' W 118°15'0 0.0
2015-Jan-23 09:33N 33°44' W 118°15'0 0.0
2015-Jan-23 08:33N 33°44' W 118°15'0 0.0
2015-Jan-23 07:33N 33°44' W 118°15'0 0.0
2015-Jan-23 06:33N 33°44' W 118°15'0 0.0
2015-Jan-23 05:27N 33°44' W 118°15'0 0.0
2015-Jan-23 04:33N 33°44' W 118°15'0 0.0
2015-Jan-23 03:33N 33°44' W 118°15'1 1.3
2015-Jan-23 02:33N 33°43' W 118°15'8 7.6
2015-Jan-23 01:33N 33°36' W 118°10'7 6.9
2015-Jan-23 00:33N 33°30' W 118°07'3 3.3
2015-Jan-22 23:33N 33°27' W 118°06'2 2.3
2015-Jan-22 22:33N 33°24' W 118°05'3 2.7
2015-Jan-22 21:33N 33°22' W 118°04'9 9.1
2015-Jan-22 20:33N 33°13' W 118°00'1111.1
2015-Jan-22 19:33N 33°03' W 117°56'1111.2
2015-Jan-22 18:33N 32°52' W 117°54'2 2.1
2015-Jan-22 17:32N 32°50' W 117°54'1 0.8
2015-Jan-22 16:32N 32°50' W 117°55'1 0.9
2015-Jan-22 15:32N 32°51' W 117°55'1 0.7
2015-Jan-22 14:32N 32°52' W 117°56'1 0.8
2015-Jan-22 13:32N 32°52' W 117°56'1 0.8
2015-Jan-22 12:32N 32°52' W 117°57'1 1.0
2015-Jan-22 11:32N 32°53' W 117°58'1 1.1
2015-Jan-22 10:32N 32°54' W 117°59'1 1.0
2015-Jan-22 09:32N 32°54' W 118°00'1 1.0
2015-Jan-22 08:32N 32°55' W 118°01'1 1.1
2015-Jan-22 07:32N 32°55' W 118°02'1 1.2
2015-Jan-22 06:32N 32°56' W 118°03'3 2.6
2015-Jan-22 05:34N 32°54' W 118°02'9 9.2
2015-Jan-22 04:34N 32°48' W 117°54'1 0.6
2015-Jan-22 03:33N 32°47' W 117°54'2 1.6
2015-Jan-22 02:33N 32°48' W 117°55'2 1.6
2015-Jan-22 01:33N 32°49' W 117°56'2 1.7
2015-Jan-22 00:33N 32°50' W 117°58'2 1.5
2015-Jan-21 23:33N 32°51' W 117°59'1 1.4
2015-Jan-21 22:48N 32°52' W 118°00'0 1.3
2015-Jan-21 22:45N 32°52' W 118°00'0 1.5
2015-Jan-21 22:33N 32°52' W 118°01'1 1.3
2015-Jan-21 21:33N 32°53' W 118°02'1 1.2
2015-Jan-21 20:33N 32°53' W 118°03'1 1.2
2015-Jan-21 19:30N 32°54' W 118°05'1 1.1
2015-Jan-21 18:30N 32°55' W 118°06'1 1.2
2015-Jan-21 17:33N 32°55' W 118°07'1 1.2
2015-Jan-21 16:30N 32°56' W 118°08'1 1.2
2015-Jan-21 15:33N 32°56' W 118°09'1 1.0
2015-Jan-21 14:33N 32°56' W 118°11'1 0.7
2015-Jan-21 13:33N 32°56' W 118°11'4 3.7
2015-Jan-21 12:33N 32°56' W 118°07'6 5.5
2015-Jan-21 11:33N 32°55' W 118°00'6 5.5
2015-Jan-21 10:33N 32°53' W 117°54'5 5.0
2015-Jan-21 09:33N 32°50' W 117°50'6 6.0
2015-Jan-21 08:33N 32°44' W 117°48'6 6.1
2015-Jan-21 07:33N 32°38' W 117°45'6 6.3
2015-Jan-21 06:33N 32°32' W 117°43'6 6.2
2015-Jan-21 05:33N 32°27' W 117°40'6 6.1
2015-Jan-21 04:33N 32°21' W 117°38'6 6.1
2015-Jan-21 03:33N 32°15' W 117°36'7 5.7
2015-Jan-21 02:18N 32°08' W 117°33'4 5.7
2015-Jan-21 01:32N 32°04' W 117°32'6 5.5
2015-Jan-21 00:31N 31°59' W 117°30'5 5.4
2015-Jan-20 23:33N 31°54' W 117°28'5 5.2
2015-Jan-20 22:33N 31°49' W 117°26'5 5.1
2015-Jan-20 21:33N 31°44' W 117°24'5 5.2
2015-Jan-20 20:33N 31°39' W 117°22'6 5.7
2015-Jan-20 19:26N 31°33' W 117°20'5 5.7
2015-Jan-20 18:33N 31°28' W 117°19'2 2.0
2015-Jan-20 17:33N 31°26' W 117°18'5 5.5
2015-Jan-20 16:33N 31°21' W 117°16'3311.0
2015-Jan-20 13:34N 30°50' W 117°04'8710.8
2015-Jan-20 05:29N 29°27' W 116°32'3310.5
2015-Jan-20 02:19N 28°56' W 116°21'1210.6
2015-Jan-20 01:14N 28°45' W 116°16'810.4
2015-Jan-20 00:30N 28°37' W 116°14'1010.4
2015-Jan-19 23:33N 28°28' W 116°10'1010.1
2015-Jan-19 22:34N 28°18' W 116°07'1010.2
2015-Jan-19 21:34N 28°09' W 116°03'1110.6
2015-Jan-19 20:34N 27°59' W 115°59'1210.8
2015-Jan-19 19:27N 27°49' W 115°51'  

Dump ship's entire track history